This is the latest recevied weather packets stored in our database for station/object WB4FAY-4. If no packets are shown the sender has not sent any weather packets the latest 1 day(s).
| Time | Temp. | Humidity | Pressure | Rain* | Wind** | Luminosity | Snow |
|---|---|---|---|---|---|---|---|
| 1778103017 | 22.78° C | 95% | 1012.4 hPa | 0 mm | - | - | - |
| 1778102718 | 22.78° C | 95% | 1012.5 hPa | 0 mm | - | - | - |
| 1778101217 | 23.33° C | 92% | 1012.8 hPa | 0 mm | - | - | - |
| 1778098523 | 25° C | 80% | 1013 hPa | 0 mm | - | - | - |
| 1778097917 | 25° C | 79% | 1013.1 hPa | 0 mm | - | - | - |
| 1778097318 | 25° C | 78% | 1013.2 hPa | 0 mm | - | - | - |
| 1778096418 | 25° C | 78% | 1013.6 hPa | 0 mm | - | - | - |
| 1778091318 | 25° C | 76% | 1014.3 hPa | 0 mm | - | - | - |
| 1778090417 | 25° C | 74% | 1014.4 hPa | 0 mm | - | - | - |
| 1778089817 | 25° C | 75% | 1014.5 hPa | 0 mm | - | - | - |
| 1778088618 | 25.56° C | 73% | 1014.6 hPa | 0 mm | - | - | - |
| 1778088018 | 25.56° C | 72% | 1014.7 hPa | 0 mm | - | - | - |
| 1778087418 | 25.56° C | 72% | 1014.6 hPa | 0 mm | - | - | - |
| 1778087118 | 25.56° C | 71% | 1014.6 hPa | 0 mm | - | - | - |
| 1778085618 | 25° C | 72% | 1014.7 hPa | 0 mm | - | - | - |
| 1778085318 | 25.56° C | 73% | 1014.7 hPa | 0 mm | - | - | - |
| 1778083818 | 25° C | 72% | 1014.7 hPa | 0 mm | - | - | - |
| 1778083518 | 25° C | 72% | 1014.7 hPa | 0 mm | - | - | - |
| 1778082918 | 25° C | 73% | 1014.7 hPa | 0 mm | - | - | - |
| 1778081117 | 23.89° C | 78% | 1014.9 hPa | 0 mm | - | - | - |
| 1778080218 | 23.33° C | 78% | 1015 hPa | 0 mm | - | - | - |
| 1778079917 | 23.33° C | 78% | 1015.1 hPa | 0 mm | - | - | - |
| 1778079018 | 22.78° C | 79% | 1015.3 hPa | 0 mm | - | - | - |
| 1778078717 | 22.78° C | 79% | 1015.3 hPa | 0 mm | - | - | - |
| 1778077518 | 22.22° C | 82% | 1015.1 hPa | 0 mm | - | - | - |
* Rain latest 24 hours (hover to see other rain measurements)
** Current wind speed in m/s (hover to see current wind gust speed)